»·PEaware :: SWA1012 KPHX-KLAX

SWA1012 :: KPHX-KLAX

FLIGHT INFORMATION

Flight Status: Arrived
Operator:
Southwest Airlines
More flights by this operator :: More flights under this callsign
Pilot: Utku A. (15598)
Aircraft: BOEING 737-300
(B733)
More flights by this aircraft type
Origin: KPHX Phoenix Sky Harbor Intl
United States
Destination: KLAX Los Angeles Intl
United States
More flights between these airports :: More routes between these airports
Route: KEENS2 MESSI ESTWD HLYWD1
File this flight plan on PilotEdge
Remarks:
Altitude:
(Current/Filed)
34,000ft
Speed:
(Current/Filed)
433kts
Departed: 24-Jul-18 07:58 PM
Arrived: 24-Jul-18 08:56 PM
Distance/Time
Traveled:
321nm/0:58
Distance/Time
To Go:
Arrived

Flight Plot

Page will automatically refresh every two minutes.

Flight plan parsing failed; only flown route is shown


Map Options




Map Legend


Flown Route
Filed Route
Departure Airport
Arrival Airport
Navaid (VOR, NDB)
Fix

Horizontal Profiles

Position Reports

Time Latitude Longitude Heading Altitude Ground
Speed
24-Jul-18 19:40 33.434070 -111.998751 292 1116ft 0kts
24-Jul-18 19:41 33.434070 -111.998751 292 1116ft 0kts
24-Jul-18 19:42 33.434070 -111.998751 292 1116ft 0kts
24-Jul-18 19:43 33.434070 -111.998751 292 1116ft 0kts
24-Jul-18 19:44 33.434070 -111.998751 292 1116ft 0kts
24-Jul-18 19:45 33.434070 -111.998751 292 1116ft 0kts
24-Jul-18 19:46 33.434070 -111.998751 292 1116ft 0kts
24-Jul-18 19:47 33.434070 -111.998751 292 1116ft 0kts
24-Jul-18 19:48 33.434069 -111.998751 292 1116ft 0kts
24-Jul-18 19:49 33.434050 -111.998274 241 1116ft 2kts
24-Jul-18 19:50 33.434254 -111.998048 207 1116ft 0kts
24-Jul-18 19:51 33.434254 -111.998048 207 1116ft 0kts
24-Jul-18 19:52 33.434204 -111.998079 208 1116ft 1kts
24-Jul-18 19:53 33.433389 -111.998262 180 1116ft 4kts
24-Jul-18 19:54 33.432138 -111.997215 89 1116ft 10kts
24-Jul-18 19:55 33.432112 -111.993848 104 1116ft 3kts
24-Jul-18 19:56 33.432098 -111.993795 108 1116ft 0kts
24-Jul-18 19:57 33.431890 -111.993510 164 1116ft 4kts
24-Jul-18 19:58 33.431043 -111.995454 269 1116ft 36kts
24-Jul-18 19:59 33.429517 -112.041467 268 2301ft 176kts
24-Jul-18 20:00 33.417989 -112.103602 251 3972ft 210kts
24-Jul-18 20:01 33.395840 -112.176295 248 5502ft 263kts
24-Jul-18 20:02 33.399869 -112.268042 278 7708ft 295kts
24-Jul-18 20:03 33.415566 -112.366668 279 10236ft 308kts
24-Jul-18 20:04 33.432339 -112.477033 279 11939ft 348kts
24-Jul-18 20:05 33.449497 -112.593354 276 14069ft 367kts
24-Jul-18 20:06 33.452003 -112.714517 267 16314ft 375kts
24-Jul-18 20:07 33.465455 -112.839601 291 18309ft 397kts
24-Jul-18 20:08 33.509880 -112.962282 289 20277ft 408kts
24-Jul-18 20:09 33.554185 -113.088809 288 22094ft 419kts
24-Jul-18 20:10 33.599551 -113.219026 288 23774ft 429kts
24-Jul-18 20:11 33.645845 -113.352454 287 25324ft 439kts
24-Jul-18 20:12 33.693001 -113.488950 286 26773ft 448kts
24-Jul-18 20:13 33.740998 -113.628450 286 28304ft 453kts
24-Jul-18 20:14 33.787650 -113.764814 284 30205ft 445kts
24-Jul-18 20:15 33.833497 -113.901496 282 31656ft 443kts
24-Jul-18 20:16 33.879812 -114.037895 281 33030ft 439kts
24-Jul-18 20:17 33.916922 -114.174425 267 33954ft 420kts
24-Jul-18 20:18 33.939106 -114.312321 269 33921ft 419kts
24-Jul-18 20:19 33.962342 -114.449807 269 33923ft 420kts
24-Jul-18 20:20 33.985514 -114.587723 269 33923ft 420kts
24-Jul-18 20:21 34.006254 -114.711949 268 33921ft 419kts
24-Jul-18 20:22 34.029048 -114.849492 268 33931ft 420kts
24-Jul-18 20:23 34.051622 -114.986759 268 33922ft 419kts
24-Jul-18 20:24 34.073535 -115.124601 268 33923ft 419kts
24-Jul-18 20:25 34.095809 -115.261898 268 33968ft 419kts
24-Jul-18 20:26 34.117818 -115.396649 268 33977ft 420kts
24-Jul-18 20:27 34.139720 -115.533331 268 34226ft 420kts
24-Jul-18 20:28 34.161673 -115.671544 268 34531ft 422kts
24-Jul-18 20:29 34.155761 -115.787566 249 34810ft 391kts
24-Jul-18 20:30 34.142227 -115.917470 251 34566ft 396kts
24-Jul-18 20:31 34.129247 -116.049213 253 32293ft 403kts
24-Jul-18 20:32 34.115911 -116.185143 255 30012ft 411kts
24-Jul-18 20:33 34.102408 -116.319976 256 27721ft 403kts
24-Jul-18 20:34 34.087971 -116.454206 257 26314ft 414kts
24-Jul-18 20:35 34.073174 -116.591350 257 26663ft 418kts
24-Jul-18 20:36 34.062528 -116.707149 258 25388ft 416kts
24-Jul-18 20:37 34.050296 -116.838724 258 23858ft 411kts
24-Jul-18 20:38 34.034591 -116.973042 256 22273ft 404kts
24-Jul-18 20:39 34.018112 -117.106255 258 20676ft 399kts
24-Jul-18 20:40 34.002703 -117.236194 258 19096ft 389kts
24-Jul-18 20:41 33.987618 -117.362623 259 17366ft 371kts
24-Jul-18 20:42 33.973626 -117.481084 258 15589ft 355kts
24-Jul-18 20:43 33.963680 -117.597018 288 14635ft 358kts
24-Jul-18 20:44 34.009232 -117.675030 298 13323ft 342kts
24-Jul-18 20:45 34.012803 -117.797070 260 10928ft 302kts
24-Jul-18 20:46 34.004012 -117.887642 259 10163ft 242kts
24-Jul-18 20:47 33.996465 -117.964546 261 8253ft 224kts
24-Jul-18 20:48 33.990536 -118.024347 262 6807ft 205kts
24-Jul-18 20:49 33.984360 -118.086184 263 5604ft 166kts
24-Jul-18 20:50 33.979272 -118.136046 264 4529ft 145kts
24-Jul-18 20:51 33.974164 -118.187039 264 3716ft 160kts
24-Jul-18 20:52 33.969101 -118.236690 264 2839ft 144kts
24-Jul-18 20:53 33.962547 -118.294900 261 1941ft 152kts
24-Jul-18 20:54 33.958611 -118.335235 262 1315ft 147kts
24-Jul-18 20:55 33.953959 -118.382628 263 458ft 140kts
24-Jul-18 20:56 33.950216 -118.421008 262 110ft 58kts
24-Jul-18 20:57 33.947471 -118.427725 196 110ft 12kts
24-Jul-18 20:58 33.946722 -118.427813 176 110ft 0kts
24-Jul-18 20:59 33.946445 -118.426971 83 110ft 8kts
24-Jul-18 21:00 33.946932 -118.421985 84 110ft 20kts
24-Jul-18 21:01 33.947659 -118.414679 82 110ft 9kts
24-Jul-18 21:02 33.945481 -118.412633 173 110ft 16kts
24-Jul-18 21:03 33.940156 -118.411831 169 110ft 21kts
24-Jul-18 21:04 33.938967 -118.406551 83 110ft 21kts
24-Jul-18 21:05 33.940297 -118.403332 265 110ft 4kts
24-Jul-18 21:06 33.940217 -118.403748 255 110ft 0kts
24-Jul-18 21:07 33.940217 -118.403748 255 110ft 0kts

Navigation Log

Ident Type
Flight plan parsing failed, navigation log unavailable